Flight Number: EUR1345 Duration: 1:30
Departure: Belfast City (EGAC) at 18:30 Distance: 438 Nm
Arrival: Bruxelles National (EBBR) at 20:00 Equipment: A321

Weather Information
Belfast / Harbour, United Kingdom (EGAC) 54-36N 005-53W 0M Aug 19, 2018 - 04:50 AM EDT / 2018.08.19 0850 UTC
Wind: from the NW (310 degrees) at 7 MPH (6 KT) (direction variable):0
Visibility: greater than 7 mile(s):0
Sky conditions: overcast Temperature: 62 F (17 C) Dew Point: 60 F (16 C) Relative Humidity: 93% Pressure (altimeter): 29.91 in. Hg (1013 hPa)
ob: EGAC 190850Z AUTO 31006KT 270V340 9999 OVC011/// 17/16 Q1013 cycle: 9
Sunrise: 05:12 Sunset: 19:41 (UTC)

Bruxelles National, Belgium (EBBR) 50-54N 004-32E 58M Aug 19, 2018 - 04:50 AM EDT / 2018.08.19 0850 UTC
Wind: from the SW (230 degrees) at 9 MPH (8 KT):0
Visibility: greater than 7 mile(s):0
Sky conditions: partly cloudy Temperature: 66 F (19 C) Dew Point: 55 F (13 C) Relative Humidity: 68% Pressure (altimeter): 30.18 in. Hg (1022 hPa)
ob: EBBR 190850Z 23008KT 9999 SCT020 19/13 Q1022 NOSIG cycle: 9
Sunrise: 04:40 Sunset: 18:50 (UTC)

TAF:2018/08/19 06:27 TAF TAF EBBR 190500Z 1906/2012 23007KT 9999 SCT030 TEMPO 1923/2010 SCT008 BKN013 PROB40 TEMPO 2000/2010 3500 -RADZ BKN007

Previous Pireps for this route
Date Aircraft Flight time Fuel used Landing rate On time
2013-04-03A32101.4110277-104Yes
2013-04-03A3211.4891890No
2013-05-24A32101.4310001-45No
2014-03-05A32102.2216938-637Charter
2014-12-27A32101.1780730Yes
2015-03-30A32101.299448-308Yes
(pireps marked green are flown by you)

Route map